sensor_id;sensor_type;location;lat;lon;timestamp;P1;durP1;ratioP1;P2;durP2;ratioP2
67500;SDS011;54349;52.528;19.760;2023-05-08T00:01:53;6.30;;;3.50;;
67500;SDS011;54349;52.528;19.760;2023-05-08T00:04:22;6.20;;;3.70;;
67500;SDS011;54349;52.528;19.760;2023-05-08T00:06:50;5.70;;;3.40;;
67500;SDS011;54349;52.528;19.760;2023-05-08T00:09:19;7.50;;;3.80;;
67500;SDS011;54349;52.528;19.760;2023-05-08T00:11:47;6.70;;;3.60;;
67500;SDS011;54349;52.528;19.760;2023-05-08T00:14:15;6.30;;;3.40;;
67500;SDS011;54349;52.528;19.760;2023-05-08T00:16:44;6.10;;;3.60;;
67500;SDS011;54349;52.528;19.760;2023-05-08T00:19:12;5.20;;;3.10;;
67500;SDS011;54349;52.528;19.760;2023-05-08T00:21:40;6.10;;;3.60;;
67500;SDS011;54349;52.528;19.760;2023-05-08T00:24:08;6.50;;;3.80;;
67500;SDS011;54349;52.528;19.760;2023-05-08T00:27:01;5.00;;;3.20;;
67500;SDS011;54349;52.528;19.760;2023-05-08T00:29:58;6.10;;;3.30;;
67500;SDS011;54349;52.528;19.760;2023-05-08T00:32:26;6.80;;;3.70;;
67500;SDS011;54349;52.528;19.760;2023-05-08T00:34:56;5.80;;;3.20;;
67500;SDS011;54349;52.528;19.760;2023-05-08T00:37:24;5.60;;;3.30;;
67500;SDS011;54349;52.528;19.760;2023-05-08T00:39:53;6.50;;;3.30;;
67500;SDS011;54349;52.528;19.760;2023-05-08T00:42:22;7.90;;;3.30;;
67500;SDS011;54349;52.528;19.760;2023-05-08T00:44:50;6.70;;;3.80;;
67500;SDS011;54349;52.528;19.760;2023-05-08T00:47:21;7.80;;;3.50;;
67500;SDS011;54349;52.528;19.760;2023-05-08T00:49:50;5.90;;;3.40;;
67500;SDS011;54349;52.528;19.760;2023-05-08T00:52:21;5.80;;;3.50;;
67500;SDS011;54349;52.528;19.760;2023-05-08T00:54:50;6.20;;;3.60;;
67500;SDS011;54349;52.528;19.760;2023-05-08T00:57:19;7.50;;;3.60;;
67500;SDS011;54349;52.528;19.760;2023-05-08T00:59:50;6.50;;;3.70;;
67500;SDS011;54349;52.528;19.760;2023-05-08T01:02:19;8.20;;;3.90;;
67500;SDS011;54349;52.528;19.760;2023-05-08T01:04:49;5.70;;;3.40;;
67500;SDS011;54349;52.528;19.760;2023-05-08T01:07:19;6.30;;;3.30;;
67500;SDS011;54349;52.528;19.760;2023-05-08T01:09:48;5.80;;;3.30;;
67500;SDS011;54349;52.528;19.760;2023-05-08T01:12:25;6.30;;;3.30;;
67500;SDS011;54349;52.528;19.760;2023-05-08T01:18:14;6.00;;;3.60;;
67500;SDS011;54349;52.528;19.760;2023-05-08T01:21:01;6.50;;;3.60;;
67500;SDS011;54349;52.528;19.760;2023-05-08T01:32:45;6.60;;;3.80;;
67500;SDS011;54349;52.528;19.760;2023-05-08T01:36:53;5.80;;;3.30;;
67500;SDS011;54349;52.528;19.760;2023-05-08T01:42:23;5.90;;;3.50;;
67500;SDS011;54349;52.528;19.760;2023-05-08T01:45:31;5.80;;;3.40;;
67500;SDS011;54349;52.528;19.760;2023-05-08T01:48:06;6.70;;;3.90;;
67500;SDS011;54349;52.528;19.760;2023-05-08T01:50:46;7.40;;;3.60;;
67500;SDS011;54349;52.528;19.760;2023-05-08T01:53:20;7.20;;;3.50;;
67500;SDS011;54349;52.528;19.760;2023-05-08T01:55:54;6.90;;;3.70;;
67500;SDS011;54349;52.528;19.760;2023-05-08T01:58:32;6.00;;;3.50;;
67500;SDS011;54349;52.528;19.760;2023-05-08T02:01:02;6.30;;;4.00;;
67500;SDS011;54349;52.528;19.760;2023-05-08T02:03:33;6.30;;;3.60;;
67500;SDS011;54349;52.528;19.760;2023-05-08T02:06:03;6.80;;;3.60;;
67500;SDS011;54349;52.528;19.760;2023-05-08T02:08:33;6.40;;;3.90;;
67500;SDS011;54349;52.528;19.760;2023-05-08T02:11:04;7.20;;;4.00;;
67500;SDS011;54349;52.528;19.760;2023-05-08T02:13:34;7.10;;;4.00;;
67500;SDS011;54349;52.528;19.760;2023-05-08T02:16:07;6.00;;;3.70;;
67500;SDS011;54349;52.528;19.760;2023-05-08T02:18:42;7.10;;;3.70;;
67500;SDS011;54349;52.528;19.760;2023-05-08T02:21:16;6.80;;;4.00;;
67500;SDS011;54349;52.528;19.760;2023-05-08T02:23:46;6.80;;;3.90;;
67500;SDS011;54349;52.528;19.760;2023-05-08T02:26:17;6.40;;;3.90;;
67500;SDS011;54349;52.528;19.760;2023-05-08T02:28:49;7.80;;;4.00;;
67500;SDS011;54349;52.528;19.760;2023-05-08T02:31:21;7.40;;;4.10;;
67500;SDS011;54349;52.528;19.760;2023-05-08T02:33:53;7.20;;;3.80;;
67500;SDS011;54349;52.528;19.760;2023-05-08T02:36:24;7.50;;;4.10;;
67500;SDS011;54349;52.528;19.760;2023-05-08T02:38:58;8.00;;;3.90;;
67500;SDS011;54349;52.528;19.760;2023-05-08T02:41:30;6.70;;;3.90;;
67500;SDS011;54349;52.528;19.760;2023-05-08T02:44:01;7.00;;;3.90;;
67500;SDS011;54349;52.528;19.760;2023-05-08T02:50:58;8.20;;;4.10;;
67500;SDS011;54349;52.528;19.760;2023-05-08T02:53:11;7.80;;;4.00;;
67500;SDS011;54349;52.528;19.760;2023-05-08T02:55:51;7.50;;;3.90;;
67500;SDS011;54349;52.528;19.760;2023-05-08T02:58:49;6.30;;;3.70;;
67500;SDS011;54349;52.528;19.760;2023-05-08T03:01:39;7.30;;;4.10;;
67500;SDS011;54349;52.528;19.760;2023-05-08T03:04:23;6.70;;;3.90;;
67500;SDS011;54349;52.528;19.760;2023-05-08T03:06:56;7.50;;;4.00;;
67500;SDS011;54349;52.528;19.760;2023-05-08T03:09:32;7.30;;;3.70;;
67500;SDS011;54349;52.528;19.760;2023-05-08T03:12:21;7.10;;;3.90;;
67500;SDS011;54349;52.528;19.760;2023-05-08T03:14:59;5.60;;;3.50;;
67500;SDS011;54349;52.528;19.760;2023-05-08T03:17:35;7.00;;;4.10;;
67500;SDS011;54349;52.528;19.760;2023-05-08T03:20:08;6.90;;;4.00;;
67500;SDS011;54349;52.528;19.760;2023-05-08T03:22:42;7.20;;;4.00;;
67500;SDS011;54349;52.528;19.760;2023-05-08T03:25:16;6.20;;;3.80;;
67500;SDS011;54349;52.528;19.760;2023-05-08T03:27:47;6.80;;;4.00;;
67500;SDS011;54349;52.528;19.760;2023-05-08T03:30:19;7.90;;;4.50;;
67500;SDS011;54349;52.528;19.760;2023-05-08T03:32:58;7.20;;;4.10;;
67500;SDS011;54349;52.528;19.760;2023-05-08T03:35:30;7.20;;;3.80;;
67500;SDS011;54349;52.528;19.760;2023-05-08T03:38:05;7.40;;;4.30;;
67500;SDS011;54349;52.528;19.760;2023-05-08T03:40:38;7.20;;;3.90;;
67500;SDS011;54349;52.528;19.760;2023-05-08T03:43:11;7.10;;;4.00;;
67500;SDS011;54349;52.528;19.760;2023-05-08T03:45:44;7.10;;;4.00;;
67500;SDS011;54349;52.528;19.760;2023-05-08T03:48:13;6.90;;;4.00;;
67500;SDS011;54349;52.528;19.760;2023-05-08T03:50:46;7.80;;;4.10;;
67500;SDS011;54349;52.528;19.760;2023-05-08T03:53:15;6.70;;;4.00;;
67500;SDS011;54349;52.528;19.760;2023-05-08T03:55:46;6.50;;;4.00;;
67500;SDS011;54349;52.528;19.760;2023-05-08T03:58:55;6.60;;;3.90;;
67500;SDS011;54349;52.528;19.760;2023-05-08T04:01:39;6.70;;;4.00;;
67500;SDS011;54349;52.528;19.760;2023-05-08T04:04:34;7.70;;;4.30;;
67500;SDS011;54349;52.528;19.760;2023-05-08T04:07:25;6.80;;;3.80;;
67500;SDS011;54349;52.528;19.760;2023-05-08T04:13:12;7.30;;;3.80;;
67500;SDS011;54349;52.528;19.760;2023-05-08T04:15:56;6.20;;;3.90;;
67500;SDS011;54349;52.528;19.760;2023-05-08T04:18:35;6.90;;;3.80;;
67500;SDS011;54349;52.528;19.760;2023-05-08T04:21:09;5.90;;;3.60;;
67500;SDS011;54349;52.528;19.760;2023-05-08T04:23:45;7.10;;;3.80;;
67500;SDS011;54349;52.528;19.760;2023-05-08T04:26:17;7.30;;;3.90;;
67500;SDS011;54349;52.528;19.760;2023-05-08T04:28:47;8.40;;;4.10;;
67500;SDS011;54349;52.528;19.760;2023-05-08T04:31:17;6.70;;;3.90;;
67500;SDS011;54349;52.528;19.760;2023-05-08T04:33:48;7.10;;;3.90;;
67500;SDS011;54349;52.528;19.760;2023-05-08T04:36:18;7.10;;;3.80;;
67500;SDS011;54349;52.528;19.760;2023-05-08T04:38:47;7.40;;;3.60;;
67500;SDS011;54349;52.528;19.760;2023-05-08T04:41:17;6.40;;;3.40;;
67500;SDS011;54349;52.528;19.760;2023-05-08T04:43:46;6.40;;;3.80;;
67500;SDS011;54349;52.528;19.760;2023-05-08T04:46:15;7.10;;;3.50;;
67500;SDS011;54349;52.528;19.760;2023-05-08T04:48:44;6.70;;;3.60;;
67500;SDS011;54349;52.528;19.760;2023-05-08T04:51:13;6.00;;;3.60;;
67500;SDS011;54349;52.528;19.760;2023-05-08T04:53:43;6.70;;;4.00;;
67500;SDS011;54349;52.528;19.760;2023-05-08T04:56:14;7.30;;;4.00;;
67500;SDS011;54349;52.528;19.760;2023-05-08T04:58:43;7.20;;;4.10;;
67500;SDS011;54349;52.528;19.760;2023-05-08T05:01:12;6.50;;;3.80;;
67500;SDS011;54349;52.528;19.760;2023-05-08T05:03:41;6.80;;;3.70;;
67500;SDS011;54349;52.528;19.760;2023-05-08T05:06:09;6.40;;;3.50;;
67500;SDS011;54349;52.528;19.760;2023-05-08T05:08:38;7.20;;;3.40;;
67500;SDS011;54349;52.528;19.760;2023-05-08T05:11:07;6.60;;;3.30;;
67500;SDS011;54349;52.528;19.760;2023-05-08T05:13:36;8.30;;;3.50;;
67500;SDS011;54349;52.528;19.760;2023-05-08T05:16:04;7.40;;;3.50;;
67500;SDS011;54349;52.528;19.760;2023-05-08T05:18:34;7.30;;;3.50;;
67500;SDS011;54349;52.528;19.760;2023-05-08T05:21:03;5.80;;;3.20;;
67500;SDS011;54349;52.528;19.760;2023-05-08T05:23:33;6.30;;;3.30;;
67500;SDS011;54349;52.528;19.760;2023-05-08T05:26:06;5.00;;;3.00;;
67500;SDS011;54349;52.528;19.760;2023-05-08T05:28:36;6.30;;;3.30;;
67500;SDS011;54349;52.528;19.760;2023-05-08T05:31:05;6.40;;;3.00;;
67500;SDS011;54349;52.528;19.760;2023-05-08T05:33:35;6.10;;;3.30;;
67500;SDS011;54349;52.528;19.760;2023-05-08T05:36:04;5.80;;;3.10;;
67500;SDS011;54349;52.528;19.760;2023-05-08T05:38:34;7.00;;;3.20;;
67500;SDS011;54349;52.528;19.760;2023-05-08T05:41:02;5.40;;;3.10;;
67500;SDS011;54349;52.528;19.760;2023-05-08T05:43:31;7.00;;;3.10;;
67500;SDS011;54349;52.528;19.760;2023-05-08T05:46:05;6.40;;;3.00;;
67500;SDS011;54349;52.528;19.760;2023-05-08T05:48:35;6.10;;;3.20;;
67500;SDS011;54349;52.528;19.760;2023-05-08T05:51:04;6.10;;;3.20;;
67500;SDS011;54349;52.528;19.760;2023-05-08T05:53:33;7.40;;;3.20;;
67500;SDS011;54349;52.528;19.760;2023-05-08T05:56:02;5.70;;;3.10;;
67500;SDS011;54349;52.528;19.760;2023-05-08T05:58:33;5.80;;;3.30;;
67500;SDS011;54349;52.528;19.760;2023-05-08T06:01:02;5.60;;;3.00;;
67500;SDS011;54349;52.528;19.760;2023-05-08T06:03:31;5.30;;;3.00;;
67500;SDS011;54349;52.528;19.760;2023-05-08T06:06:00;6.20;;;3.30;;
67500;SDS011;54349;52.528;19.760;2023-05-08T06:08:29;5.50;;;3.00;;
67500;SDS011;54349;52.528;19.760;2023-05-08T06:10:59;5.10;;;2.90;;
67500;SDS011;54349;52.528;19.760;2023-05-08T06:13:27;6.30;;;2.90;;
67500;SDS011;54349;52.528;19.760;2023-05-08T06:15:56;5.20;;;3.00;;
67500;SDS011;54349;52.528;19.760;2023-05-08T06:18:24;5.80;;;3.00;;
67500;SDS011;54349;52.528;19.760;2023-05-08T06:20:56;4.70;;;2.60;;
67500;SDS011;54349;52.528;19.760;2023-05-08T06:23:25;6.20;;;3.00;;
67500;SDS011;54349;52.528;19.760;2023-05-08T06:25:53;5.20;;;2.90;;
67500;SDS011;54349;52.528;19.760;2023-05-08T06:28:22;5.30;;;2.70;;
67500;SDS011;54349;52.528;19.760;2023-05-08T06:30:52;5.70;;;3.20;;
67500;SDS011;54349;52.528;19.760;2023-05-08T06:33:21;5.50;;;3.20;;
67500;SDS011;54349;52.528;19.760;2023-05-08T06:35:53;5.40;;;2.80;;
67500;SDS011;54349;52.528;19.760;2023-05-08T06:38:21;5.40;;;2.70;;
67500;SDS011;54349;52.528;19.760;2023-05-08T06:40:49;4.50;;;2.80;;
67500;SDS011;54349;52.528;19.760;2023-05-08T06:43:17;5.60;;;2.80;;
67500;SDS011;54349;52.528;19.760;2023-05-08T06:45:46;5.60;;;2.70;;
67500;SDS011;54349;52.528;19.760;2023-05-08T06:48:14;6.30;;;3.20;;
67500;SDS011;54349;52.528;19.760;2023-05-08T06:50:43;6.60;;;2.90;;
67500;SDS011;54349;52.528;19.760;2023-05-08T06:53:11;5.90;;;3.20;;
67500;SDS011;54349;52.528;19.760;2023-05-08T06:55:42;4.80;;;2.80;;
67500;SDS011;54349;52.528;19.760;2023-05-08T06:58:11;5.00;;;2.60;;
67500;SDS011;54349;52.528;19.760;2023-05-08T07:00:39;4.70;;;2.60;;
67500;SDS011;54349;52.528;19.760;2023-05-08T07:03:07;5.90;;;2.80;;
67500;SDS011;54349;52.528;19.760;2023-05-08T07:05:35;4.90;;;2.60;;
67500;SDS011;54349;52.528;19.760;2023-05-08T07:08:03;4.30;;;2.50;;
67500;SDS011;54349;52.528;19.760;2023-05-08T07:10:32;5.20;;;2.80;;
67500;SDS011;54349;52.528;19.760;2023-05-08T07:13:00;5.80;;;2.70;;
67500;SDS011;54349;52.528;19.760;2023-05-08T07:15:30;4.80;;;2.60;;
67500;SDS011;54349;52.528;19.760;2023-05-08T07:17:59;3.80;;;2.10;;
67500;SDS011;54349;52.528;19.760;2023-05-08T07:20:27;5.50;;;2.60;;
67500;SDS011;54349;52.528;19.760;2023-05-08T07:22:56;4.50;;;2.30;;
67500;SDS011;54349;52.528;19.760;2023-05-08T07:25:24;5.50;;;2.60;;
67500;SDS011;54349;52.528;19.760;2023-05-08T07:27:54;3.80;;;2.30;;
67500;SDS011;54349;52.528;19.760;2023-05-08T07:30:24;3.80;;;2.30;;
67500;SDS011;54349;52.528;19.760;2023-05-08T07:32:53;4.30;;;2.40;;
67500;SDS011;54349;52.528;19.760;2023-05-08T07:35:21;4.30;;;2.20;;
67500;SDS011;54349;52.528;19.760;2023-05-08T07:37:50;5.60;;;2.40;;
67500;SDS011;54349;52.528;19.760;2023-05-08T07:40:18;4.50;;;2.50;;
67500;SDS011;54349;52.528;19.760;2023-05-08T07:42:46;4.00;;;2.40;;
67500;SDS011;54349;52.528;19.760;2023-05-08T07:45:15;4.20;;;2.00;;
67500;SDS011;54349;52.528;19.760;2023-05-08T07:47:54;3.70;;;2.10;;
67500;SDS011;54349;52.528;19.760;2023-05-08T07:50:24;4.40;;;2.30;;
67500;SDS011;54349;52.528;19.760;2023-05-08T07:52:53;5.00;;;2.40;;
67500;SDS011;54349;52.528;19.760;2023-05-08T07:55:21;6.30;;;2.50;;
67500;SDS011;54349;52.528;19.760;2023-05-08T07:57:49;4.80;;;2.40;;
67500;SDS011;54349;52.528;19.760;2023-05-08T08:00:18;4.20;;;2.20;;
67500;SDS011;54349;52.528;19.760;2023-05-08T08:02:46;3.70;;;2.20;;
67500;SDS011;54349;52.528;19.760;2023-05-08T08:05:14;3.30;;;2.10;;
67500;SDS011;54349;52.528;19.760;2023-05-08T08:07:43;4.20;;;2.20;;
67500;SDS011;54349;52.528;19.760;2023-05-08T08:10:11;4.70;;;2.30;;
67500;SDS011;54349;52.528;19.760;2023-05-08T08:12:39;4.90;;;2.10;;
67500;SDS011;54349;52.528;19.760;2023-05-08T08:15:08;5.20;;;2.40;;
67500;SDS011;54349;52.528;19.760;2023-05-08T08:17:37;4.20;;;2.00;;
67500;SDS011;54349;52.528;19.760;2023-05-08T08:20:06;2.80;;;1.80;;
67500;SDS011;54349;52.528;19.760;2023-05-08T08:22:36;5.00;;;2.50;;
67500;SDS011;54349;52.528;19.760;2023-05-08T08:25:05;4.30;;;2.20;;
67500;SDS011;54349;52.528;19.760;2023-05-08T08:27:34;3.80;;;2.10;;
67500;SDS011;54349;52.528;19.760;2023-05-08T08:30:02;4.50;;;2.30;;
67500;SDS011;54349;52.528;19.760;2023-05-08T08:32:44;5.40;;;2.00;;
67500;SDS011;54349;52.528;19.760;2023-05-08T08:35:13;4.90;;;2.10;;
67500;SDS011;54349;52.528;19.760;2023-05-08T08:37:42;4.20;;;2.20;;
67500;SDS011;54349;52.528;19.760;2023-05-08T08:40:12;5.60;;;2.20;;
67500;SDS011;54349;52.528;19.760;2023-05-08T08:42:43;4.00;;;2.00;;
67500;SDS011;54349;52.528;19.760;2023-05-08T08:45:13;3.90;;;1.90;;
67500;SDS011;54349;52.528;19.760;2023-05-08T08:47:44;4.10;;;2.00;;
67500;SDS011;54349;52.528;19.760;2023-05-08T08:50:13;3.20;;;2.00;;
67500;SDS011;54349;52.528;19.760;2023-05-08T08:52:47;3.10;;;2.00;;
67500;SDS011;54349;52.528;19.760;2023-05-08T08:55:24;3.60;;;1.90;;
67500;SDS011;54349;52.528;19.760;2023-05-08T08:58:02;4.40;;;2.10;;
67500;SDS011;54349;52.528;19.760;2023-05-08T09:00:41;4.60;;;1.90;;
67500;SDS011;54349;52.528;19.760;2023-05-08T09:03:10;4.20;;;2.00;;
67500;SDS011;54349;52.528;19.760;2023-05-08T09:05:38;3.60;;;1.90;;
67500;SDS011;54349;52.528;19.760;2023-05-08T09:08:07;5.60;;;2.30;;
67500;SDS011;54349;52.528;19.760;2023-05-08T09:10:37;4.10;;;2.30;;
67500;SDS011;54349;52.528;19.760;2023-05-08T09:13:05;4.10;;;1.90;;
67500;SDS011;54349;52.528;19.760;2023-05-08T09:15:33;2.90;;;2.00;;
67500;SDS011;54349;52.528;19.760;2023-05-08T09:18:05;4.30;;;2.10;;
67500;SDS011;54349;52.528;19.760;2023-05-08T09:20:34;4.00;;;2.10;;
67500;SDS011;54349;52.528;19.760;2023-05-08T09:23:05;4.90;;;2.30;;
67500;SDS011;54349;52.528;19.760;2023-05-08T09:25:45;3.80;;;1.70;;
67500;SDS011;54349;52.528;19.760;2023-05-08T09:28:20;3.90;;;2.10;;
67500;SDS011;54349;52.528;19.760;2023-05-08T09:33:20;3.30;;;1.90;;
67500;SDS011;54349;52.528;19.760;2023-05-08T09:35:51;2.90;;;1.90;;
67500;SDS011;54349;52.528;19.760;2023-05-08T09:38:38;4.10;;;2.10;;
67500;SDS011;54349;52.528;19.760;2023-05-08T09:41:10;2.80;;;1.90;;
67500;SDS011;54349;52.528;19.760;2023-05-08T09:43:43;3.40;;;1.90;;
67500;SDS011;54349;52.528;19.760;2023-05-08T09:46:26;3.20;;;1.80;;
67500;SDS011;54349;52.528;19.760;2023-05-08T09:48:57;3.60;;;2.00;;
67500;SDS011;54349;52.528;19.760;2023-05-08T09:51:28;2.50;;;1.70;;
67500;SDS011;54349;52.528;19.760;2023-05-08T09:53:58;3.30;;;1.80;;
67500;SDS011;54349;52.528;19.760;2023-05-08T09:56:32;3.30;;;1.90;;
67500;SDS011;54349;52.528;19.760;2023-05-08T09:59:41;3.60;;;1.90;;
67500;SDS011;54349;52.528;19.760;2023-05-08T10:02:10;2.80;;;1.70;;
67500;SDS011;54349;52.528;19.760;2023-05-08T10:04:39;2.30;;;1.70;;
67500;SDS011;54349;52.528;19.760;2023-05-08T10:07:08;3.50;;;1.80;;
67500;SDS011;54349;52.528;19.760;2023-05-08T10:09:36;2.70;;;1.80;;
67500;SDS011;54349;52.528;19.760;2023-05-08T10:12:17;2.70;;;1.80;;
67500;SDS011;54349;52.528;19.760;2023-05-08T10:14:48;3.20;;;1.90;;
67500;SDS011;54349;52.528;19.760;2023-05-08T10:17:24;3.30;;;1.80;;
67500;SDS011;54349;52.528;19.760;2023-05-08T10:19:58;3.30;;;1.80;;
67500;SDS011;54349;52.528;19.760;2023-05-08T10:22:31;2.70;;;1.70;;
67500;SDS011;54349;52.528;19.760;2023-05-08T10:25:06;2.60;;;1.70;;
67500;SDS011;54349;52.528;19.760;2023-05-08T10:30:49;2.80;;;1.70;;
67500;SDS011;54349;52.528;19.760;2023-05-08T10:33:23;3.00;;;1.90;;
67500;SDS011;54349;52.528;19.760;2023-05-08T10:35:59;2.50;;;1.70;;
67500;SDS011;54349;52.528;19.760;2023-05-08T10:38:29;2.60;;;1.70;;
67500;SDS011;54349;52.528;19.760;2023-05-08T10:40:59;3.90;;;2.00;;
67500;SDS011;54349;52.528;19.760;2023-05-08T10:43:29;3.10;;;1.90;;
67500;SDS011;54349;52.528;19.760;2023-05-08T10:46:06;4.00;;;2.00;;
67500;SDS011;54349;52.528;19.760;2023-05-08T10:57:20;3.60;;;1.90;;
67500;SDS011;54349;52.528;19.760;2023-05-08T10:59:48;2.90;;;1.80;;
67500;SDS011;54349;52.528;19.760;2023-05-08T11:02:25;2.30;;;1.60;;
67500;SDS011;54349;52.528;19.760;2023-05-08T11:05:15;3.40;;;1.80;;
67500;SDS011;54349;52.528;19.760;2023-05-08T11:07:58;3.20;;;1.90;;
67500;SDS011;54349;52.528;19.760;2023-05-08T11:10:31;3.00;;;1.60;;
67500;SDS011;54349;52.528;19.760;2023-05-08T11:13:00;3.00;;;1.90;;
67500;SDS011;54349;52.528;19.760;2023-05-08T11:15:37;2.30;;;1.70;;
67500;SDS011;54349;52.528;19.760;2023-05-08T11:18:10;2.90;;;1.70;;
67500;SDS011;54349;52.528;19.760;2023-05-08T11:20:56;3.00;;;1.70;;
67500;SDS011;54349;52.528;19.760;2023-05-08T11:23:27;3.00;;;1.60;;
67500;SDS011;54349;52.528;19.760;2023-05-08T11:26:03;3.10;;;1.80;;
67500;SDS011;54349;52.528;19.760;2023-05-08T11:28:39;3.50;;;1.70;;
67500;SDS011;54349;52.528;19.760;2023-05-08T11:31:22;2.40;;;1.60;;
67500;SDS011;54349;52.528;19.760;2023-05-08T11:33:51;2.80;;;1.60;;
67500;SDS011;54349;52.528;19.760;2023-05-08T11:36:19;3.00;;;1.80;;
67500;SDS011;54349;52.528;19.760;2023-05-08T11:39:09;2.00;;;1.60;;
67500;SDS011;54349;52.528;19.760;2023-05-08T11:41:43;2.50;;;1.70;;
67500;SDS011;54349;52.528;19.760;2023-05-08T11:44:18;2.30;;;1.70;;
67500;SDS011;54349;52.528;19.760;2023-05-08T11:46:54;2.50;;;1.80;;
67500;SDS011;54349;52.528;19.760;2023-05-08T11:49:24;3.10;;;1.80;;
67500;SDS011;54349;52.528;19.760;2023-05-08T11:51:57;2.10;;;1.50;;
67500;SDS011;54349;52.528;19.760;2023-05-08T11:54:29;2.80;;;1.70;;
67500;SDS011;54349;52.528;19.760;2023-05-08T11:56:58;2.90;;;1.60;;
67500;SDS011;54349;52.528;19.760;2023-05-08T11:59:33;2.80;;;1.80;;
67500;SDS011;54349;52.528;19.760;2023-05-08T12:04:44;2.40;;;1.50;;
67500;SDS011;54349;52.528;19.760;2023-05-08T12:07:14;2.90;;;1.60;;
67500;SDS011;54349;52.528;19.760;2023-05-08T12:09:45;2.40;;;1.60;;
67500;SDS011;54349;52.528;19.760;2023-05-08T12:12:13;2.70;;;1.70;;
67500;SDS011;54349;52.528;19.760;2023-05-08T12:14:41;2.00;;;1.60;;
67500;SDS011;54349;52.528;19.760;2023-05-08T12:17:09;1.60;;;1.40;;
67500;SDS011;54349;52.528;19.760;2023-05-08T12:19:37;2.80;;;1.60;;
67500;SDS011;54349;52.528;19.760;2023-05-08T12:22:07;3.50;;;1.60;;
67500;SDS011;54349;52.528;19.760;2023-05-08T12:24:35;1.90;;;1.40;;
67500;SDS011;54349;52.528;19.760;2023-05-08T12:27:06;2.80;;;1.70;;
67500;SDS011;54349;52.528;19.760;2023-05-08T12:29:35;1.50;;;1.30;;
67500;SDS011;54349;52.528;19.760;2023-05-08T12:32:04;1.70;;;1.50;;
67500;SDS011;54349;52.528;19.760;2023-05-08T12:34:33;1.50;;;1.40;;
67500;SDS011;54349;52.528;19.760;2023-05-08T12:37:03;2.60;;;1.50;;
67500;SDS011;54349;52.528;19.760;2023-05-08T12:39:35;2.10;;;1.40;;
67500;SDS011;54349;52.528;19.760;2023-05-08T12:42:04;2.50;;;1.60;;
67500;SDS011;54349;52.528;19.760;2023-05-08T12:44:32;2.00;;;1.50;;
67500;SDS011;54349;52.528;19.760;2023-05-08T12:47:01;3.10;;;1.70;;
67500;SDS011;54349;52.528;19.760;2023-05-08T12:49:32;2.30;;;1.50;;
67500;SDS011;54349;52.528;19.760;2023-05-08T12:52:11;2.00;;;1.60;;
67500;SDS011;54349;52.528;19.760;2023-05-08T12:54:47;1.70;;;1.40;;
67500;SDS011;54349;52.528;19.760;2023-05-08T12:57:17;1.90;;;1.50;;
67500;SDS011;54349;52.528;19.760;2023-05-08T12:59:46;3.00;;;1.60;;
67500;SDS011;54349;52.528;19.760;2023-05-08T13:02:19;2.60;;;1.50;;
67500;SDS011;54349;52.528;19.760;2023-05-08T13:04:53;2.10;;;1.50;;
67500;SDS011;54349;52.528;19.760;2023-05-08T13:07:23;1.70;;;1.50;;
67500;SDS011;54349;52.528;19.760;2023-05-08T13:10:01;1.60;;;1.50;;
67500;SDS011;54349;52.528;19.760;2023-05-08T13:12:32;1.70;;;1.20;;
67500;SDS011;54349;52.528;19.760;2023-05-08T13:15:01;1.60;;;1.30;;
67500;SDS011;54349;52.528;19.760;2023-05-08T13:17:31;2.10;;;1.40;;
67500;SDS011;54349;52.528;19.760;2023-05-08T13:19:59;1.90;;;1.50;;
67500;SDS011;54349;52.528;19.760;2023-05-08T13:22:32;2.70;;;1.50;;
67500;SDS011;54349;52.528;19.760;2023-05-08T13:25:01;2.20;;;1.40;;
67500;SDS011;54349;52.528;19.760;2023-05-08T13:27:29;2.40;;;1.60;;
67500;SDS011;54349;52.528;19.760;2023-05-08T13:29:58;1.70;;;1.50;;
67500;SDS011;54349;52.528;19.760;2023-05-08T13:32:26;2.60;;;1.70;;
67500;SDS011;54349;52.528;19.760;2023-05-08T13:34:54;2.20;;;1.50;;
67500;SDS011;54349;52.528;19.760;2023-05-08T13:37:27;2.50;;;1.50;;
67500;SDS011;54349;52.528;19.760;2023-05-08T13:39:55;2.10;;;1.60;;
67500;SDS011;54349;52.528;19.760;2023-05-08T13:42:23;3.40;;;1.60;;
67500;SDS011;54349;52.528;19.760;2023-05-08T13:44:51;1.70;;;1.50;;
67500;SDS011;54349;52.528;19.760;2023-05-08T13:47:19;2.40;;;1.60;;
67500;SDS011;54349;52.528;19.760;2023-05-08T13:49:48;3.80;;;1.60;;
67500;SDS011;54349;52.528;19.760;2023-05-08T13:52:17;1.60;;;1.50;;
67500;SDS011;54349;52.528;19.760;2023-05-08T13:54:45;2.20;;;1.50;;
67500;SDS011;54349;52.528;19.760;2023-05-08T13:57:13;1.90;;;1.50;;
67500;SDS011;54349;52.528;19.760;2023-05-08T13:59:41;2.60;;;1.60;;
67500;SDS011;54349;52.528;19.760;2023-05-08T14:02:10;2.70;;;1.60;;
67500;SDS011;54349;52.528;19.760;2023-05-08T14:04:39;2.40;;;1.60;;
67500;SDS011;54349;52.528;19.760;2023-05-08T14:07:07;1.80;;;1.40;;
67500;SDS011;54349;52.528;19.760;2023-05-08T14:09:35;2.30;;;1.60;;
67500;SDS011;54349;52.528;19.760;2023-05-08T14:12:03;2.30;;;1.70;;
67500;SDS011;54349;52.528;19.760;2023-05-08T14:14:31;1.90;;;1.50;;
67500;SDS011;54349;52.528;19.760;2023-05-08T14:17:04;2.50;;;1.60;;
67500;SDS011;54349;52.528;19.760;2023-05-08T14:19:33;2.60;;;1.70;;
67500;SDS011;54349;52.528;19.760;2023-05-08T14:22:01;2.10;;;1.60;;
67500;SDS011;54349;52.528;19.760;2023-05-08T14:24:29;2.10;;;1.60;;
67500;SDS011;54349;52.528;19.760;2023-05-08T14:26:57;1.90;;;1.60;;
67500;SDS011;54349;52.528;19.760;2023-05-08T14:29:26;3.70;;;1.70;;
67500;SDS011;54349;52.528;19.760;2023-05-08T14:31:54;2.10;;;1.50;;
67500;SDS011;54349;52.528;19.760;2023-05-08T14:34:23;2.20;;;1.70;;
67500;SDS011;54349;52.528;19.760;2023-05-08T14:36:51;2.40;;;1.70;;
67500;SDS011;54349;52.528;19.760;2023-05-08T14:39:20;1.40;;;1.30;;
67500;SDS011;54349;52.528;19.760;2023-05-08T14:41:48;3.30;;;1.60;;
67500;SDS011;54349;52.528;19.760;2023-05-08T14:44:37;2.70;;;1.50;;
67500;SDS011;54349;52.528;19.760;2023-05-08T14:47:05;2.10;;;1.50;;
67500;SDS011;54349;52.528;19.760;2023-05-08T14:49:34;2.00;;;1.50;;
67500;SDS011;54349;52.528;19.760;2023-05-08T14:52:05;2.60;;;1.60;;
67500;SDS011;54349;52.528;19.760;2023-05-08T14:54:34;1.70;;;1.60;;
67500;SDS011;54349;52.528;19.760;2023-05-08T14:57:02;1.90;;;1.50;;
67500;SDS011;54349;52.528;19.760;2023-05-08T14:59:30;2.50;;;1.70;;
67500;SDS011;54349;52.528;19.760;2023-05-08T15:01:58;2.60;;;1.70;;
67500;SDS011;54349;52.528;19.760;2023-05-08T15:04:26;2.10;;;1.70;;
67500;SDS011;54349;52.528;19.760;2023-05-08T15:06:54;2.30;;;1.50;;
67500;SDS011;54349;52.528;19.760;2023-05-08T15:09:23;2.60;;;1.70;;
67500;SDS011;54349;52.528;19.760;2023-05-08T15:11:51;2.30;;;1.50;;
67500;SDS011;54349;52.528;19.760;2023-05-08T15:14:19;2.50;;;1.50;;
67500;SDS011;54349;52.528;19.760;2023-05-08T15:16:47;2.20;;;1.60;;
67500;SDS011;54349;52.528;19.760;2023-05-08T15:19:15;2.30;;;1.50;;
67500;SDS011;54349;52.528;19.760;2023-05-08T15:21:44;2.30;;;1.60;;
67500;SDS011;54349;52.528;19.760;2023-05-08T15:24:12;2.00;;;1.50;;
67500;SDS011;54349;52.528;19.760;2023-05-08T15:26:40;2.10;;;1.70;;
67500;SDS011;54349;52.528;19.760;2023-05-08T15:29:08;2.00;;;1.40;;
67500;SDS011;54349;52.528;19.760;2023-05-08T15:31:36;2.20;;;1.60;;
67500;SDS011;54349;52.528;19.760;2023-05-08T15:34:04;1.90;;;1.50;;
67500;SDS011;54349;52.528;19.760;2023-05-08T15:36:32;1.50;;;1.40;;
67500;SDS011;54349;52.528;19.760;2023-05-08T15:39:02;1.60;;;1.40;;
67500;SDS011;54349;52.528;19.760;2023-05-08T15:41:30;2.30;;;1.70;;